createdAt,value
2022-08-07T00:02:36.624Z,45.51
2022-08-07T00:07:09.567Z,45.08
2022-08-07T00:12:04.578Z,45.98
2022-08-07T00:16:59.656Z,45.40
2022-08-07T00:21:55.990Z,46.82
2022-08-07T00:27:06.035Z,45.11
2022-08-07T00:32:00.593Z,45.04
2022-08-07T00:36:55.216Z,44.58
2022-08-07T00:42:02.181Z,44.59
2022-08-07T00:46:59.733Z,46.21
2022-08-07T00:51:57.580Z,44.81
2022-08-07T00:56:53.328Z,45.82
2022-08-07T01:01:47.231Z,45.36
2022-08-07T01:06:44.057Z,45.04
2022-08-07T01:12:23.370Z,44.60
2022-08-07T01:16:52.502Z,44.27
2022-08-07T01:21:49.833Z,44.50
2022-08-07T01:26:58.286Z,44.24
2022-08-07T01:31:52.500Z,43.91
2022-08-07T01:36:52.401Z,43.76
2022-08-07T01:42:07.898Z,43.49
2022-08-07T01:47:14.314Z,42.77
2022-08-07T01:52:11.925Z,42.39
2022-08-07T01:58:01.416Z,42.25
2022-08-07T02:03:12.310Z,42.02
2022-08-07T02:08:20.148Z,41.19
2022-08-07T02:13:18.486Z,41.38
2022-08-07T02:18:17.762Z,41.13
2022-08-07T02:23:13.397Z,41.16
2022-08-07T02:28:25.521Z,42.92
2022-08-07T02:33:42.045Z,41.87
2022-08-07T02:38:50.877Z,41.83
2022-08-07T02:43:53.459Z,42.12
2022-08-07T02:48:55.007Z,42.00
2022-08-07T02:53:54.682Z,41.38
2022-08-07T02:58:54.279Z,40.84
2022-08-07T03:03:51.959Z,40.87
2022-08-07T03:08:54.164Z,40.33
2022-08-07T03:13:49.835Z,40.89
2022-08-07T03:18:46.731Z,41.18
2022-08-07T03:24:20.685Z,41.42
2022-08-07T03:29:02.684Z,41.45
2022-08-07T03:34:01.758Z,41.15
2022-08-07T03:39:05.265Z,41.02
2022-08-07T03:44:01.050Z,41.74
2022-08-07T03:49:02.596Z,40.97
2022-08-07T03:54:36.508Z,41.19
2022-08-07T03:59:21.090Z,41.50
2022-08-07T04:04:19.162Z,41.74
2022-08-07T04:09:19.336Z,41.91
2022-08-07T04:14:37.865Z,42.17
2022-08-07T04:19:52.782Z,42.34
2022-08-07T04:24:49.463Z,42.34
2022-08-07T04:29:58.300Z,42.73
2022-08-07T04:35:11.205Z,42.73
2022-08-07T04:40:07.847Z,42.79
2022-08-07T04:45:08.225Z,42.40
2022-08-07T04:50:20.152Z,42.65
2022-08-07T04:58:15.884Z,41.93
2022-08-07T05:01:15.782Z,42.01
2022-08-07T05:06:20.787Z,41.95
2022-08-07T05:11:58.148Z,41.52
2022-08-07T05:16:52.886Z,41.92
2022-08-07T05:21:59.813Z,41.87
2022-08-07T05:27:00.904Z,41.83
2022-08-07T05:31:57.379Z,41.77
2022-08-07T05:36:57.304Z,41.84
2022-08-07T05:42:33.613Z,42.11
2022-08-07T05:47:38.505Z,41.93
2022-08-07T05:52:43.829Z,41.21
2022-08-07T05:57:42.289Z,41.44
2022-08-07T06:02:37.949Z,41.28
2022-08-07T06:08:14.847Z,41.00
2022-08-07T06:12:49.333Z,41.17
2022-08-07T06:17:50.845Z,41.14
2022-08-07T06:23:02.409Z,43.08
2022-08-07T06:28:14.085Z,45.65
2022-08-07T06:33:10.021Z,47.11
2022-08-07T06:38:19.894Z,48.50
2022-08-07T06:43:21.572Z,49.26
2022-08-07T06:48:27.131Z,49.22
2022-08-07T06:55:27.330Z,49.11
2022-08-07T07:00:13.791Z,50.75
2022-08-07T07:04:08.289Z,50.74
2022-08-07T07:09:23.354Z,49.40
2022-08-07T07:14:22.940Z,49.96
2022-08-07T07:19:56.480Z,50.43
2022-08-07T07:24:32.145Z,49.87
2022-08-07T07:29:56.258Z,51.20
2022-08-07T07:34:49.885Z,52.18
2022-08-07T07:39:52.415Z,53.26
2022-08-07T07:44:50.932Z,53.76
2022-08-07T07:50:33.641Z,52.28
2022-08-07T07:55:03.454Z,54.15
2022-08-07T07:59:58.808Z,54.31
2022-08-07T08:04:52.934Z,53.96
2022-08-07T08:09:52.419Z,53.47
2022-08-07T08:14:59.444Z,53.90
2022-08-07T08:20:17.809Z,55.28
2022-08-07T08:25:42.520Z,54.92
2022-08-07T08:30:50.854Z,55.26
2022-08-07T08:35:50.807Z,60.65
2022-08-07T08:40:55.619Z,65.34
2022-08-07T08:46:10.289Z,57.30
2022-08-07T08:51:26.095Z,58.01
2022-08-07T08:56:39.636Z,56.41
2022-08-07T09:01:58.399Z,56.38
2022-08-07T09:07:12.602Z,56.88
2022-08-07T09:12:35.098Z,57.51
2022-08-07T09:17:59.528Z,58.44
2022-08-07T09:24:34.138Z,56.29
2022-08-07T09:30:05.238Z,55.11
2022-08-07T09:34:34.871Z,54.81
2022-08-07T09:39:53.833Z,55.65
2022-08-07T09:47:42.628Z,55.89
2022-08-07T09:50:51.492Z,55.92
2022-08-07T09:56:37.195Z,56.65
2022-08-07T10:01:51.246Z,56.58
2022-08-07T10:07:53.068Z,54.44
2022-08-07T10:13:54.939Z,56.37
2022-08-07T10:18:41.202Z,56.28
2022-08-07T10:24:04.844Z,56.24
2022-08-07T10:29:18.009Z,55.77
2022-08-07T10:35:09.074Z,57.43
2022-08-07T10:40:18.556Z,54.67
2022-08-07T10:45:57.068Z,55.65
2022-08-07T10:50:56.436Z,57.82
2022-08-07T10:56:31.125Z,58.11
2022-08-07T11:01:35.591Z,55.43
2022-08-07T11:07:02.314Z,56.28
2022-08-07T11:12:31.801Z,59.10
2022-08-07T11:17:48.434Z,57.36
2022-08-07T11:23:30.503Z,57.25
2022-08-07T11:28:59.097Z,58.57
2022-08-07T11:34:05.077Z,55.70
2022-08-07T11:39:19.465Z,56.03
2022-08-07T11:44:57.493Z,56.06
2022-08-07T11:50:31.292Z,53.61
2022-08-07T11:56:09.431Z,54.26
2022-08-07T12:01:04.448Z,55.21
2022-08-07T12:06:39.200Z,52.48
2022-08-07T12:12:10.638Z,52.36
2022-08-07T12:17:19.694Z,52.29
2022-08-07T12:22:46.853Z,51.97
2022-08-07T12:28:05.829Z,50.24
2022-08-07T12:33:30.758Z,48.97
2022-08-07T12:38:43.346Z,49.20
2022-08-07T12:44:02.284Z,48.64
2022-08-07T12:49:00.552Z,50.58
2022-08-07T12:54:37.253Z,55.47
2022-08-07T12:59:54.252Z,51.03
2022-08-07T13:05:03.149Z,49.68
2022-08-07T13:10:44.777Z,47.67
2022-08-07T13:16:01.048Z,50.51
2022-08-07T13:21:51.141Z,49.87
2022-08-07T13:26:46.364Z,49.38
2022-08-07T13:32:00.047Z,45.62
2022-08-07T13:37:10.722Z,47.43
2022-08-07T13:42:21.567Z,49.00
2022-08-07T13:47:25.363Z,46.91
2022-08-07T13:52:32.085Z,47.33
2022-08-07T13:57:38.020Z,47.64
2022-08-07T14:02:49.319Z,48.50
2022-08-07T14:07:59.734Z,47.45
2022-08-07T14:13:00.526Z,48.38
2022-08-07T14:18:27.367Z,47.81
2022-08-07T14:23:59.005Z,48.23
2022-08-07T14:28:57.711Z,47.91
2022-08-07T14:33:56.182Z,47.29
2022-08-07T14:38:52.503Z,46.92
2022-08-07T14:43:55.321Z,46.22
2022-08-07T14:48:56.850Z,45.10
2022-08-07T14:54:09.803Z,44.81
2022-08-07T15:04:25.100Z,45.81
2022-08-07T15:09:59.609Z,44.31
2022-08-07T15:14:55.956Z,45.50
2022-08-07T15:20:34.094Z,43.92
2022-08-07T15:25:19.668Z,43.83
2022-08-07T15:30:16.219Z,43.94
2022-08-07T15:35:16.803Z,43.45
2022-08-07T15:40:34.142Z,44.25
2022-08-07T15:56:13.625Z,43.75
2022-08-07T16:01:13.904Z,44.34
2022-08-07T16:06:15.125Z,43.74
2022-08-07T16:11:28.761Z,44.03
2022-08-07T16:16:57.279Z,44.25
2022-08-07T16:22:33.899Z,43.63
2022-08-07T16:27:39.728Z,44.16
2022-08-07T16:32:55.740Z,43.16
2022-08-07T16:38:18.201Z,44.18
2022-08-07T16:44:05.552Z,43.90
2022-08-07T16:50:28.614Z,43.95
2022-08-07T16:54:38.741Z,43.67
2022-08-07T17:00:15.049Z,44.01
2022-08-07T17:06:19.004Z,43.57
2022-08-07T17:10:57.431Z,43.51
2022-08-07T17:16:35.539Z,43.41
2022-08-07T17:21:50.613Z,44.19
2022-08-07T17:27:00.090Z,44.03
2022-08-07T17:32:52.758Z,44.16
2022-08-07T17:38:05.853Z,44.31
2022-08-07T17:43:17.780Z,44.36
2022-08-07T17:48:31.425Z,44.58
2022-08-07T17:54:00.824Z,44.26
2022-08-07T17:58:56.869Z,44.04
2022-08-07T18:04:34.816Z,44.15
2022-08-07T18:10:05.710Z,44.47
2022-08-07T18:15:08.679Z,45.20
2022-08-07T18:21:10.963Z,44.82
2022-08-07T18:25:40.262Z,45.00
2022-08-07T18:31:10.058Z,45.69
2022-08-07T18:36:32.888Z,44.89
2022-08-07T18:42:03.968Z,45.18
2022-08-07T18:47:44.866Z,44.48
2022-08-07T18:53:19.149Z,44.35
2022-08-07T18:58:51.400Z,44.68
2022-08-07T19:04:38.931Z,44.22
2022-08-07T19:10:00.832Z,45.10
2022-08-07T19:16:05.428Z,44.86
2022-08-07T19:21:08.327Z,45.04
2022-08-07T19:26:23.395Z,45.02
2022-08-07T19:31:42.859Z,44.72
2022-08-07T19:36:41.627Z,45.60
2022-08-07T19:41:44.791Z,45.95
2022-08-07T19:47:06.804Z,45.84
2022-08-07T19:52:06.049Z,46.68
2022-08-07T19:58:02.405Z,46.54
2022-08-07T20:02:56.980Z,46.98
2022-08-07T20:07:56.251Z,46.73
2022-08-07T20:12:56.087Z,46.13
2022-08-07T20:18:01.625Z,46.39
2022-08-07T20:23:22.908Z,46.76
2022-08-07T20:28:18.943Z,47.24
2022-08-07T20:33:36.208Z,47.35
2022-08-07T20:38:53.616Z,47.12
2022-08-07T20:43:57.424Z,50.23
2022-08-07T20:50:00.918Z,48.95
2022-08-07T20:54:29.912Z,49.47
2022-08-07T21:00:06.155Z,50.09
2022-08-07T21:04:52.852Z,50.75
2022-08-07T21:09:59.390Z,50.49
2022-08-07T21:15:02.388Z,50.10
2022-08-07T21:20:05.026Z,49.75
2022-08-07T21:25:21.184Z,52.57
2022-08-07T21:30:17.910Z,50.05
2022-08-07T21:36:00.066Z,50.20
2022-08-07T21:40:57.126Z,49.86
2022-08-07T21:46:07.806Z,50.82
2022-08-07T21:51:51.389Z,51.43
2022-08-07T21:57:15.963Z,50.69
2022-08-07T22:02:32.200Z,50.38
2022-08-07T22:07:31.835Z,51.46
2022-08-07T22:12:54.083Z,50.17
2022-08-07T22:17:56.224Z,50.20
2022-08-07T22:23:14.041Z,51.95
2022-08-07T22:28:31.374Z,50.43
2022-08-07T22:33:53.197Z,49.72
2022-08-07T22:39:01.033Z,49.53
2022-08-07T22:44:05.643Z,49.66
2022-08-07T22:49:51.654Z,50.32
2022-08-07T22:55:17.641Z,49.95
2022-08-07T23:00:43.714Z,50.91
2022-08-07T23:06:09.906Z,49.50
2022-08-07T23:11:29.067Z,49.81
2022-08-07T23:17:08.484Z,49.47
2022-08-07T23:22:54.387Z,51.60
2022-08-07T23:28:28.599Z,51.09
2022-08-07T23:34:35.691Z,50.00
2022-08-07T23:39:44.601Z,49.77
2022-08-07T23:44:55.971Z,50.06
2022-08-07T23:50:17.997Z,49.84
2022-08-07T23:55:53.110Z,49.54
